sensor_id;sensor_type;location;lat;lon;timestamp;P1;durP1;ratioP1;P2;durP2;ratioP2
17662;SDS011;8950;56.892;15.090;2022-11-20T00:01:15;1.42;;;1.33;;
17662;SDS011;8950;56.892;15.090;2022-11-20T00:03:43;1.50;;;1.40;;
17662;SDS011;8950;56.892;15.090;2022-11-20T00:06:10;1.60;;;1.50;;
17662;SDS011;8950;56.892;15.090;2022-11-20T00:08:37;1.73;;;1.40;;
17662;SDS011;8950;56.892;15.090;2022-11-20T00:11:04;1.60;;;1.50;;
17662;SDS011;8950;56.892;15.090;2022-11-20T00:13:30;1.42;;;1.20;;
17662;SDS011;8950;56.892;15.090;2022-11-20T00:15:57;2.42;;;1.40;;
17662;SDS011;8950;56.892;15.090;2022-11-20T00:18:23;1.40;;;1.38;;
17662;SDS011;8950;56.892;15.090;2022-11-20T00:20:51;1.35;;;1.25;;
17662;SDS011;8950;56.892;15.090;2022-11-20T00:23:18;1.27;;;1.27;;
17662;SDS011;8950;56.892;15.090;2022-11-20T00:25:44;1.50;;;1.40;;
17662;SDS011;8950;56.892;15.090;2022-11-20T00:28:11;1.60;;;1.40;;
17662;SDS011;8950;56.892;15.090;2022-11-20T00:30:37;1.38;;;1.30;;
17662;SDS011;8950;56.892;15.090;2022-11-20T00:33:03;1.40;;;1.30;;
17662;SDS011;8950;56.892;15.090;2022-11-20T00:35:30;1.58;;;1.48;;
17662;SDS011;8950;56.892;15.090;2022-11-20T00:37:58;1.60;;;1.50;;
17662;SDS011;8950;56.892;15.090;2022-11-20T00:40:24;1.30;;;1.30;;
17662;SDS011;8950;56.892;15.090;2022-11-20T00:42:50;1.60;;;1.40;;
17662;SDS011;8950;56.892;15.090;2022-11-20T00:45:17;1.55;;;1.40;;
17662;SDS011;8950;56.892;15.090;2022-11-20T00:47:43;1.20;;;1.20;;
17662;SDS011;8950;56.892;15.090;2022-11-20T00:50:09;1.48;;;1.40;;
17662;SDS011;8950;56.892;15.090;2022-11-20T00:52:36;1.85;;;1.40;;
17662;SDS011;8950;56.892;15.090;2022-11-20T00:55:05;1.50;;;1.40;;
17662;SDS011;8950;56.892;15.090;2022-11-20T00:57:31;1.50;;;1.40;;
17662;SDS011;8950;56.892;15.090;2022-11-20T00:59:57;1.60;;;1.50;;
17662;SDS011;8950;56.892;15.090;2022-11-20T01:02:24;1.50;;;1.40;;
17662;SDS011;8950;56.892;15.090;2022-11-20T01:04:50;1.42;;;1.33;;
17662;SDS011;8950;56.892;15.090;2022-11-20T01:07:16;1.52;;;1.40;;
17662;SDS011;8950;56.892;15.090;2022-11-20T01:09:43;1.25;;;1.20;;
17662;SDS011;8950;56.892;15.090;2022-11-20T01:12:11;1.50;;;1.40;;
17662;SDS011;8950;56.892;15.090;2022-11-20T01:14:37;1.83;;;1.40;;
17662;SDS011;8950;56.892;15.090;2022-11-20T01:17:03;1.45;;;1.35;;
17662;SDS011;8950;56.892;15.090;2022-11-20T01:19:30;1.40;;;1.30;;
17662;SDS011;8950;56.892;15.090;2022-11-20T01:21:56;1.60;;;1.50;;
17662;SDS011;8950;56.892;15.090;2022-11-20T01:24:23;1.60;;;1.50;;
17662;SDS011;8950;56.892;15.090;2022-11-20T01:26:49;1.60;;;1.50;;
17662;SDS011;8950;56.892;15.090;2022-11-20T01:29:18;1.55;;;1.45;;
17662;SDS011;8950;56.892;15.090;2022-11-20T01:31:45;1.50;;;1.40;;
17662;SDS011;8950;56.892;15.090;2022-11-20T01:34:13;1.50;;;1.40;;
17662;SDS011;8950;56.892;15.090;2022-11-20T01:36:40;2.13;;;1.50;;
17662;SDS011;8950;56.892;15.090;2022-11-20T01:39:09;1.60;;;1.50;;
17662;SDS011;8950;56.892;15.090;2022-11-20T01:41:36;1.58;;;1.48;;
17662;SDS011;8950;56.892;15.090;2022-11-20T01:44:22;1.98;;;1.40;;
17662;SDS011;8950;56.892;15.090;2022-11-20T01:46:51;1.60;;;1.50;;
17662;SDS011;8950;56.892;15.090;2022-11-20T01:49:20;2.42;;;1.60;;
17662;SDS011;8950;56.892;15.090;2022-11-20T01:51:48;1.50;;;1.40;;
17662;SDS011;8950;56.892;15.090;2022-11-20T01:54:16;1.60;;;1.50;;
17662;SDS011;8950;56.892;15.090;2022-11-20T01:56:43;1.70;;;1.60;;
17662;SDS011;8950;56.892;15.090;2022-11-20T01:59:10;1.70;;;1.60;;
17662;SDS011;8950;56.892;15.090;2022-11-20T02:01:40;1.67;;;1.58;;
17662;SDS011;8950;56.892;15.090;2022-11-20T02:04:07;1.60;;;1.50;;
17662;SDS011;8950;56.892;15.090;2022-11-20T02:06:35;1.50;;;1.40;;
17662;SDS011;8950;56.892;15.090;2022-11-20T02:09:02;1.65;;;1.55;;
17662;SDS011;8950;56.892;15.090;2022-11-20T02:11:29;1.60;;;1.50;;
17662;SDS011;8950;56.892;15.090;2022-11-20T02:13:56;1.70;;;1.60;;
17662;SDS011;8950;56.892;15.090;2022-11-20T02:16:22;1.67;;;1.40;;
17662;SDS011;8950;56.892;15.090;2022-11-20T02:18:51;1.52;;;1.42;;
17662;SDS011;8950;56.892;15.090;2022-11-20T02:24:04;1.60;;;1.50;;
17662;SDS011;8950;56.892;15.090;2022-11-20T02:26:33;1.75;;;1.65;;
17662;SDS011;8950;56.892;15.090;2022-11-20T02:29:00;1.63;;;1.52;;
17662;SDS011;8950;56.892;15.090;2022-11-20T02:31:27;1.30;;;1.27;;
17662;SDS011;8950;56.892;15.090;2022-11-20T02:33:54;1.60;;;1.50;;
17662;SDS011;8950;56.892;15.090;2022-11-20T02:36:21;1.70;;;1.60;;
17662;SDS011;8950;56.892;15.090;2022-11-20T02:38:47;1.70;;;1.60;;
17662;SDS011;8950;56.892;15.090;2022-11-20T02:41:16;1.90;;;1.70;;
17662;SDS011;8950;56.892;15.090;2022-11-20T02:43:43;1.60;;;1.50;;
17662;SDS011;8950;56.892;15.090;2022-11-20T02:46:09;1.60;;;1.50;;
17662;SDS011;8950;56.892;15.090;2022-11-20T02:48:35;1.50;;;1.40;;
17662;SDS011;8950;56.892;15.090;2022-11-20T02:51:02;1.50;;;1.40;;
17662;SDS011;8950;56.892;15.090;2022-11-20T02:53:28;1.60;;;1.50;;
17662;SDS011;8950;56.892;15.090;2022-11-20T02:55:55;1.50;;;1.40;;
17662;SDS011;8950;56.892;15.090;2022-11-20T02:58:22;1.52;;;1.42;;
17662;SDS011;8950;56.892;15.090;2022-11-20T03:00:49;1.60;;;1.48;;
17662;SDS011;8950;56.892;15.090;2022-11-20T03:03:15;1.50;;;1.40;;
17662;SDS011;8950;56.892;15.090;2022-11-20T03:05:42;1.67;;;1.58;;
17662;SDS011;8950;56.892;15.090;2022-11-20T03:08:08;1.70;;;1.60;;
17662;SDS011;8950;56.892;15.090;2022-11-20T03:10:34;1.63;;;1.52;;
17662;SDS011;8950;56.892;15.090;2022-11-20T03:13:01;1.60;;;1.50;;
17662;SDS011;8950;56.892;15.090;2022-11-20T03:15:28;1.70;;;1.60;;
17662;SDS011;8950;56.892;15.090;2022-11-20T03:17:55;1.63;;;1.52;;
17662;SDS011;8950;56.892;15.090;2022-11-20T03:20:21;1.65;;;1.55;;
17662;SDS011;8950;56.892;15.090;2022-11-20T03:22:48;1.60;;;1.50;;
17662;SDS011;8950;56.892;15.090;2022-11-20T03:25:14;1.52;;;1.42;;
17662;SDS011;8950;56.892;15.090;2022-11-20T03:27:41;1.60;;;1.50;;
17662;SDS011;8950;56.892;15.090;2022-11-20T03:30:07;1.67;;;1.58;;
17662;SDS011;8950;56.892;15.090;2022-11-20T03:32:35;1.70;;;1.60;;
17662;SDS011;8950;56.892;15.090;2022-11-20T03:35:02;2.88;;;1.75;;
17662;SDS011;8950;56.892;15.090;2022-11-20T03:37:28;1.90;;;1.70;;
17662;SDS011;8950;56.892;15.090;2022-11-20T03:39:55;1.80;;;1.70;;
17662;SDS011;8950;56.892;15.090;2022-11-20T03:42:21;1.60;;;1.50;;
17662;SDS011;8950;56.892;15.090;2022-11-20T03:45:05;1.80;;;1.70;;
17662;SDS011;8950;56.892;15.090;2022-11-20T03:47:31;1.77;;;1.67;;
17662;SDS011;8950;56.892;15.090;2022-11-20T03:49:59;1.50;;;1.40;;
17662;SDS011;8950;56.892;15.090;2022-11-20T03:52:25;1.60;;;1.50;;
17662;SDS011;8950;56.892;15.090;2022-11-20T03:54:52;1.52;;;1.42;;
17662;SDS011;8950;56.892;15.090;2022-11-20T03:57:18;1.75;;;1.48;;
17662;SDS011;8950;56.892;15.090;2022-11-20T03:59:45;1.70;;;1.60;;
17662;SDS011;8950;56.892;15.090;2022-11-20T04:02:11;1.58;;;1.48;;
17662;SDS011;8950;56.892;15.090;2022-11-20T04:04:37;1.60;;;1.50;;
17662;SDS011;8950;56.892;15.090;2022-11-20T04:07:05;1.60;;;1.50;;
17662;SDS011;8950;56.892;15.090;2022-11-20T04:09:31;1.60;;;1.50;;
17662;SDS011;8950;56.892;15.090;2022-11-20T04:11:58;1.67;;;1.58;;
17662;SDS011;8950;56.892;15.090;2022-11-20T04:14:24;1.70;;;1.60;;
17662;SDS011;8950;56.892;15.090;2022-11-20T04:16:51;1.70;;;1.60;;
17662;SDS011;8950;56.892;15.090;2022-11-20T04:19:17;1.60;;;1.50;;
17662;SDS011;8950;56.892;15.090;2022-11-20T04:21:43;1.55;;;1.45;;
17662;SDS011;8950;56.892;15.090;2022-11-20T04:24:12;1.58;;;1.48;;
17662;SDS011;8950;56.892;15.090;2022-11-20T04:26:38;1.73;;;1.63;;
17662;SDS011;8950;56.892;15.090;2022-11-20T04:29:04;1.60;;;1.50;;
17662;SDS011;8950;56.892;15.090;2022-11-20T04:31:31;2.20;;;1.90;;
17662;SDS011;8950;56.892;15.090;2022-11-20T04:33:58;1.70;;;1.60;;
17662;SDS011;8950;56.892;15.090;2022-11-20T04:36:25;2.10;;;1.70;;
17662;SDS011;8950;56.892;15.090;2022-11-20T04:38:52;1.65;;;1.55;;
17662;SDS011;8950;56.892;15.090;2022-11-20T04:41:21;1.70;;;1.60;;
17662;SDS011;8950;56.892;15.090;2022-11-20T04:43:47;1.70;;;1.60;;
17662;SDS011;8950;56.892;15.090;2022-11-20T04:46:14;2.15;;;1.80;;
17662;SDS011;8950;56.892;15.090;2022-11-20T04:48:40;1.60;;;1.50;;
17662;SDS011;8950;56.892;15.090;2022-11-20T04:51:07;1.60;;;1.50;;
17662;SDS011;8950;56.892;15.090;2022-11-20T04:53:33;1.75;;;1.60;;
17662;SDS011;8950;56.892;15.090;2022-11-20T04:56:00;1.80;;;1.70;;
17662;SDS011;8950;56.892;15.090;2022-11-20T04:58:28;1.77;;;1.67;;
17662;SDS011;8950;56.892;15.090;2022-11-20T05:01:00;1.77;;;1.67;;
17662;SDS011;8950;56.892;15.090;2022-11-20T05:03:26;2.00;;;1.73;;
17662;SDS011;8950;56.892;15.090;2022-11-20T05:05:52;1.80;;;1.70;;
17662;SDS011;8950;56.892;15.090;2022-11-20T05:08:19;1.70;;;1.60;;
17662;SDS011;8950;56.892;15.090;2022-11-20T05:10:45;1.70;;;1.60;;
17662;SDS011;8950;56.892;15.090;2022-11-20T05:13:12;1.77;;;1.67;;
17662;SDS011;8950;56.892;15.090;2022-11-20T05:15:40;1.70;;;1.60;;
17662;SDS011;8950;56.892;15.090;2022-11-20T05:18:06;1.88;;;1.52;;
17662;SDS011;8950;56.892;15.090;2022-11-20T05:20:32;1.75;;;1.65;;
17662;SDS011;8950;56.892;15.090;2022-11-20T05:23:01;1.80;;;1.70;;
17662;SDS011;8950;56.892;15.090;2022-11-20T05:25:27;1.67;;;1.58;;
17662;SDS011;8950;56.892;15.090;2022-11-20T05:27:53;1.70;;;1.60;;
17662;SDS011;8950;56.892;15.090;2022-11-20T05:30:20;1.83;;;1.73;;
17662;SDS011;8950;56.892;15.090;2022-11-20T05:32:48;1.83;;;1.73;;
17662;SDS011;8950;56.892;15.090;2022-11-20T05:35:14;1.60;;;1.50;;
17662;SDS011;8950;56.892;15.090;2022-11-20T05:37:40;1.88;;;1.67;;
17662;SDS011;8950;56.892;15.090;2022-11-20T05:40:07;1.70;;;1.60;;
17662;SDS011;8950;56.892;15.090;2022-11-20T05:42:34;1.90;;;1.80;;
17662;SDS011;8950;56.892;15.090;2022-11-20T05:45:01;1.70;;;1.60;;
17662;SDS011;8950;56.892;15.090;2022-11-20T05:47:28;1.80;;;1.70;;
17662;SDS011;8950;56.892;15.090;2022-11-20T05:49:58;1.65;;;1.55;;
17662;SDS011;8950;56.892;15.090;2022-11-20T05:52:27;1.50;;;1.40;;
17662;SDS011;8950;56.892;15.090;2022-11-20T05:54:53;1.67;;;1.58;;
17662;SDS011;8950;56.892;15.090;2022-11-20T05:57:20;1.80;;;1.70;;
17662;SDS011;8950;56.892;15.090;2022-11-20T05:59:46;1.73;;;1.63;;
17662;SDS011;8950;56.892;15.090;2022-11-20T06:02:12;1.70;;;1.60;;
17662;SDS011;8950;56.892;15.090;2022-11-20T06:04:39;1.63;;;1.52;;
17662;SDS011;8950;56.892;15.090;2022-11-20T06:07:07;2.67;;;1.50;;
17662;SDS011;8950;56.892;15.090;2022-11-20T06:09:33;1.65;;;1.55;;
17662;SDS011;8950;56.892;15.090;2022-11-20T06:12:00;1.70;;;1.60;;
17662;SDS011;8950;56.892;15.090;2022-11-20T06:14:26;1.70;;;1.60;;
17662;SDS011;8950;56.892;15.090;2022-11-20T06:16:52;1.85;;;1.75;;
17662;SDS011;8950;56.892;15.090;2022-11-20T06:19:19;1.90;;;1.80;;
17662;SDS011;8950;56.892;15.090;2022-11-20T06:21:47;1.75;;;1.65;;
17662;SDS011;8950;56.892;15.090;2022-11-20T06:24:15;1.80;;;1.70;;
17662;SDS011;8950;56.892;15.090;2022-11-20T06:26:41;1.80;;;1.58;;
17662;SDS011;8950;56.892;15.090;2022-11-20T06:29:07;1.80;;;1.70;;
17662;SDS011;8950;56.892;15.090;2022-11-20T06:31:34;1.90;;;1.80;;
17662;SDS011;8950;56.892;15.090;2022-11-20T06:34:02;1.80;;;1.70;;
17662;SDS011;8950;56.892;15.090;2022-11-20T06:36:29;1.77;;;1.67;;
17662;SDS011;8950;56.892;15.090;2022-11-20T06:38:55;1.90;;;1.80;;
17662;SDS011;8950;56.892;15.090;2022-11-20T06:41:23;1.70;;;1.60;;
17662;SDS011;8950;56.892;15.090;2022-11-20T06:43:50;1.98;;;1.85;;
17662;SDS011;8950;56.892;15.090;2022-11-20T06:46:17;1.65;;;1.55;;
17662;SDS011;8950;56.892;15.090;2022-11-20T06:48:43;1.58;;;1.48;;
17662;SDS011;8950;56.892;15.090;2022-11-20T06:51:10;1.60;;;1.50;;
17662;SDS011;8950;56.892;15.090;2022-11-20T06:53:36;1.60;;;1.50;;
17662;SDS011;8950;56.892;15.090;2022-11-20T06:56:03;2.08;;;1.73;;
17662;SDS011;8950;56.892;15.090;2022-11-20T06:58:32;1.65;;;1.55;;
17662;SDS011;8950;56.892;15.090;2022-11-20T07:00:59;1.70;;;1.60;;
17662;SDS011;8950;56.892;15.090;2022-11-20T07:03:25;2.70;;;1.77;;
17662;SDS011;8950;56.892;15.090;2022-11-20T07:05:53;2.15;;;1.55;;
17662;SDS011;8950;56.892;15.090;2022-11-20T07:08:20;1.60;;;1.50;;
17662;SDS011;8950;56.892;15.090;2022-11-20T07:10:46;1.70;;;1.60;;
17662;SDS011;8950;56.892;15.090;2022-11-20T07:13:13;1.77;;;1.67;;
17662;SDS011;8950;56.892;15.090;2022-11-20T07:15:41;2.20;;;2.00;;
17662;SDS011;8950;56.892;15.090;2022-11-20T07:18:07;2.97;;;2.67;;
17662;SDS011;8950;56.892;15.090;2022-11-20T07:20:34;2.80;;;2.60;;
17662;SDS011;8950;56.892;15.090;2022-11-20T07:23:00;13.27;;;7.97;;
17662;SDS011;8950;56.892;15.090;2022-11-20T07:25:27;3.90;;;3.10;;
17662;SDS011;8950;56.892;15.090;2022-11-20T07:27:56;1.70;;;1.60;;
17662;SDS011;8950;56.892;15.090;2022-11-20T07:30:22;1.60;;;1.50;;
17662;SDS011;8950;56.892;15.090;2022-11-20T07:32:52;2.88;;;2.20;;
17662;SDS011;8950;56.892;15.090;2022-11-20T07:35:18;1.98;;;1.70;;
17662;SDS011;8950;56.892;15.090;2022-11-20T07:37:45;2.08;;;1.92;;
17662;SDS011;8950;56.892;15.090;2022-11-20T07:40:12;1.85;;;1.75;;
17662;SDS011;8950;56.892;15.090;2022-11-20T07:42:38;3.20;;;2.20;;
17662;SDS011;8950;56.892;15.090;2022-11-20T07:45:05;6.75;;;4.03;;
17662;SDS011;8950;56.892;15.090;2022-11-20T07:47:34;43.60;;;27.55;;
17662;SDS011;8950;56.892;15.090;2022-11-20T07:50:02;34.00;;;20.33;;
17662;SDS011;8950;56.892;15.090;2022-11-20T07:52:28;9.60;;;6.68;;
17662;SDS011;8950;56.892;15.090;2022-11-20T07:54:55;27.92;;;18.13;;
17662;SDS011;8950;56.892;15.090;2022-11-20T07:57:21;44.28;;;28.75;;
17662;SDS011;8950;56.892;15.090;2022-11-20T07:59:47;46.45;;;29.38;;
17662;SDS011;8950;56.892;15.090;2022-11-20T08:02:14;35.65;;;25.35;;
17662;SDS011;8950;56.892;15.090;2022-11-20T08:04:40;26.90;;;23.08;;
17662;SDS011;8950;56.892;15.090;2022-11-20T08:07:08;14.45;;;12.77;;
17662;SDS011;8950;56.892;15.090;2022-11-20T08:09:35;14.55;;;10.68;;
17662;SDS011;8950;56.892;15.090;2022-11-20T08:12:01;10.25;;;7.20;;
17662;SDS011;8950;56.892;15.090;2022-11-20T08:14:45;8.35;;;5.80;;
17662;SDS011;8950;56.892;15.090;2022-11-20T08:17:11;4.22;;;3.80;;
17662;SDS011;8950;56.892;15.090;2022-11-20T08:19:37;5.22;;;4.72;;
17662;SDS011;8950;56.892;15.090;2022-11-20T08:22:04;3.55;;;3.25;;
17662;SDS011;8950;56.892;15.090;2022-11-20T08:24:32;3.65;;;2.20;;
17662;SDS011;8950;56.892;15.090;2022-11-20T08:26:58;3.17;;;2.85;;
17662;SDS011;8950;56.892;15.090;2022-11-20T08:29:25;3.95;;;3.58;;
17662;SDS011;8950;56.892;15.090;2022-11-20T08:31:52;3.85;;;3.55;;
17662;SDS011;8950;56.892;15.090;2022-11-20T08:34:18;3.72;;;3.42;;
17662;SDS011;8950;56.892;15.090;2022-11-20T08:36:44;3.60;;;3.30;;
17662;SDS011;8950;56.892;15.090;2022-11-20T08:39:13;2.10;;;1.90;;
17662;SDS011;8950;56.892;15.090;2022-11-20T08:41:41;1.65;;;1.55;;
17662;SDS011;8950;56.892;15.090;2022-11-20T08:44:07;1.50;;;1.40;;
17662;SDS011;8950;56.892;15.090;2022-11-20T08:46:35;1.70;;;1.60;;
17662;SDS011;8950;56.892;15.090;2022-11-20T08:49:02;1.33;;;1.33;;
17662;SDS011;8950;56.892;15.090;2022-11-20T08:51:28;1.48;;;1.38;;
17662;SDS011;8950;56.892;15.090;2022-11-20T08:53:55;2.35;;;2.15;;
17662;SDS011;8950;56.892;15.090;2022-11-20T08:56:21;1.80;;;1.70;;
17662;SDS011;8950;56.892;15.090;2022-11-20T08:58:49;1.80;;;1.70;;
17662;SDS011;8950;56.892;15.090;2022-11-20T09:01:15;1.60;;;1.50;;
17662;SDS011;8950;56.892;15.090;2022-11-20T09:03:42;1.63;;;1.52;;
17662;SDS011;8950;56.892;15.090;2022-11-20T09:06:08;1.40;;;1.30;;
17662;SDS011;8950;56.892;15.090;2022-11-20T09:08:34;1.80;;;1.70;;
17662;SDS011;8950;56.892;15.090;2022-11-20T09:11:02;1.30;;;1.30;;
17662;SDS011;8950;56.892;15.090;2022-11-20T09:13:29;3.08;;;1.50;;
17662;SDS011;8950;56.892;15.090;2022-11-20T09:15:57;1.40;;;1.30;;
17662;SDS011;8950;56.892;15.090;2022-11-20T09:18:24;2.55;;;1.70;;
17662;SDS011;8950;56.892;15.090;2022-11-20T09:20:50;1.50;;;1.40;;
17662;SDS011;8950;56.892;15.090;2022-11-20T09:23:17;1.50;;;1.40;;
17662;SDS011;8950;56.892;15.090;2022-11-20T09:25:44;1.70;;;1.60;;
17662;SDS011;8950;56.892;15.090;2022-11-20T09:28:10;1.60;;;1.50;;
17662;SDS011;8950;56.892;15.090;2022-11-20T09:30:36;1.50;;;1.40;;
17662;SDS011;8950;56.892;15.090;2022-11-20T09:33:05;1.50;;;1.40;;
17662;SDS011;8950;56.892;15.090;2022-11-20T09:35:32;1.60;;;1.50;;
17662;SDS011;8950;56.892;15.090;2022-11-20T09:37:58;1.50;;;1.40;;
17662;SDS011;8950;56.892;15.090;2022-11-20T09:40:25;1.70;;;1.60;;
17662;SDS011;8950;56.892;15.090;2022-11-20T09:42:54;1.60;;;1.50;;
17662;SDS011;8950;56.892;15.090;2022-11-20T09:45:24;1.65;;;1.55;;
17662;SDS011;8950;56.892;15.090;2022-11-20T09:47:58;1.60;;;1.50;;
17662;SDS011;8950;56.892;15.090;2022-11-20T09:50:30;1.50;;;1.40;;
17662;SDS011;8950;56.892;15.090;2022-11-20T09:53:13;1.50;;;1.40;;
17662;SDS011;8950;56.892;15.090;2022-11-20T09:55:42;1.70;;;1.60;;
17662;SDS011;8950;56.892;15.090;2022-11-20T09:58:12;1.25;;;1.25;;
17662;SDS011;8950;56.892;15.090;2022-11-20T10:00:41;1.50;;;1.40;;
17662;SDS011;8950;56.892;15.090;2022-11-20T10:03:11;1.50;;;1.40;;
17662;SDS011;8950;56.892;15.090;2022-11-20T10:05:42;1.60;;;1.50;;
17662;SDS011;8950;56.892;15.090;2022-11-20T10:08:11;1.50;;;1.40;;
17662;SDS011;8950;56.892;15.090;2022-11-20T10:10:42;1.30;;;1.30;;
17662;SDS011;8950;56.892;15.090;2022-11-20T10:13:12;1.50;;;1.40;;
17662;SDS011;8950;56.892;15.090;2022-11-20T10:15:43;1.60;;;1.50;;
17662;SDS011;8950;56.892;15.090;2022-11-20T10:18:16;1.30;;;1.30;;
17662;SDS011;8950;56.892;15.090;2022-11-20T10:20:48;1.60;;;1.50;;
17662;SDS011;8950;56.892;15.090;2022-11-20T10:23:23;1.40;;;1.30;;
17662;SDS011;8950;56.892;15.090;2022-11-20T10:25:54;1.42;;;1.40;;
17662;SDS011;8950;56.892;15.090;2022-11-20T10:28:28;1.50;;;1.40;;
17662;SDS011;8950;56.892;15.090;2022-11-20T10:30:57;1.30;;;1.30;;
17662;SDS011;8950;56.892;15.090;2022-11-20T10:33:25;1.70;;;1.60;;
17662;SDS011;8950;56.892;15.090;2022-11-20T10:35:55;1.50;;;1.40;;
17662;SDS011;8950;56.892;15.090;2022-11-20T10:38:29;1.35;;;1.27;;
17662;SDS011;8950;56.892;15.090;2022-11-20T10:40:57;1.55;;;1.45;;
17662;SDS011;8950;56.892;15.090;2022-11-20T10:43:45;1.40;;;1.30;;
17662;SDS011;8950;56.892;15.090;2022-11-20T10:46:13;1.35;;;1.30;;
17662;SDS011;8950;56.892;15.090;2022-11-20T10:48:40;1.40;;;1.30;;
17662;SDS011;8950;56.892;15.090;2022-11-20T10:51:12;2.40;;;1.58;;
17662;SDS011;8950;56.892;15.090;2022-11-20T10:56:24;1.52;;;1.42;;
17662;SDS011;8950;56.892;15.090;2022-11-20T11:01:39;1.70;;;1.60;;
17662;SDS011;8950;56.892;15.090;2022-11-20T11:04:07;1.30;;;1.30;;
17662;SDS011;8950;56.892;15.090;2022-11-20T11:06:43;1.60;;;1.50;;
17662;SDS011;8950;56.892;15.090;2022-11-20T11:09:15;1.60;;;1.50;;
17662;SDS011;8950;56.892;15.090;2022-11-20T11:11:42;1.50;;;1.40;;
17662;SDS011;8950;56.892;15.090;2022-11-20T11:14:11;1.50;;;1.40;;
17662;SDS011;8950;56.892;15.090;2022-11-20T11:16:40;1.30;;;1.30;;
17662;SDS011;8950;56.892;15.090;2022-11-20T11:19:14;1.48;;;1.38;;
17662;SDS011;8950;56.892;15.090;2022-11-20T11:21:46;1.63;;;1.52;;
17662;SDS011;8950;56.892;15.090;2022-11-20T11:24:16;1.40;;;1.30;;
17662;SDS011;8950;56.892;15.090;2022-11-20T11:26:50;1.60;;;1.50;;
17662;SDS011;8950;56.892;15.090;2022-11-20T11:29:17;1.50;;;1.40;;
17662;SDS011;8950;56.892;15.090;2022-11-20T11:31:43;1.48;;;1.38;;
17662;SDS011;8950;56.892;15.090;2022-11-20T11:34:11;2.17;;;1.45;;
17662;SDS011;8950;56.892;15.090;2022-11-20T11:36:38;1.27;;;1.27;;
17662;SDS011;8950;56.892;15.090;2022-11-20T11:39:08;1.50;;;1.40;;
17662;SDS011;8950;56.892;15.090;2022-11-20T11:41:36;1.50;;;1.40;;
17662;SDS011;8950;56.892;15.090;2022-11-20T11:44:12;1.40;;;1.30;;
17662;SDS011;8950;56.892;15.090;2022-11-20T11:46:59;1.50;;;1.40;;
17662;SDS011;8950;56.892;15.090;2022-11-20T11:49:26;1.60;;;1.50;;
17662;SDS011;8950;56.892;15.090;2022-11-20T11:51:56;1.70;;;1.60;;
17662;SDS011;8950;56.892;15.090;2022-11-20T11:54:26;1.60;;;1.50;;
17662;SDS011;8950;56.892;15.090;2022-11-20T11:56:54;2.15;;;1.95;;
17662;SDS011;8950;56.892;15.090;2022-11-20T11:59:23;1.50;;;1.40;;
17662;SDS011;8950;56.892;15.090;2022-11-20T12:01:52;1.38;;;1.30;;
17662;SDS011;8950;56.892;15.090;2022-11-20T12:04:21;1.65;;;1.55;;
17662;SDS011;8950;56.892;15.090;2022-11-20T12:06:51;2.47;;;2.28;;
17662;SDS011;8950;56.892;15.090;2022-11-20T12:09:20;7.25;;;6.35;;
17662;SDS011;8950;56.892;15.090;2022-11-20T12:11:52;2.33;;;2.13;;
17662;SDS011;8950;56.892;15.090;2022-11-20T12:14:22;2.20;;;2.10;;
17662;SDS011;8950;56.892;15.090;2022-11-20T12:16:53;3.28;;;2.70;;
17662;SDS011;8950;56.892;15.090;2022-11-20T12:19:22;1.77;;;1.67;;
17662;SDS011;8950;56.892;15.090;2022-11-20T12:21:52;1.88;;;1.77;;
17662;SDS011;8950;56.892;15.090;2022-11-20T12:24:32;1.50;;;1.40;;
17662;SDS011;8950;56.892;15.090;2022-11-20T12:27:05;1.60;;;1.50;;
17662;SDS011;8950;56.892;15.090;2022-11-20T12:29:39;1.60;;;1.50;;
17662;SDS011;8950;56.892;15.090;2022-11-20T12:32:22;1.52;;;1.42;;
17662;SDS011;8950;56.892;15.090;2022-11-20T12:34:52;1.60;;;1.50;;
17662;SDS011;8950;56.892;15.090;2022-11-20T12:37:26;1.35;;;1.30;;
17662;SDS011;8950;56.892;15.090;2022-11-20T12:39:55;1.58;;;1.48;;
17662;SDS011;8950;56.892;15.090;2022-11-20T12:45:49;1.40;;;1.30;;
17662;SDS011;8950;56.892;15.090;2022-11-20T12:48:24;1.40;;;1.33;;
17662;SDS011;8950;56.892;15.090;2022-11-20T12:50:54;1.60;;;1.50;;
17662;SDS011;8950;56.892;15.090;2022-11-20T12:53:25;1.50;;;1.40;;
17662;SDS011;8950;56.892;15.090;2022-11-20T12:55:54;1.50;;;1.40;;
17662;SDS011;8950;56.892;15.090;2022-11-20T12:58:26;1.48;;;1.38;;
17662;SDS011;8950;56.892;15.090;2022-11-20T13:00:58;1.92;;;1.50;;
17662;SDS011;8950;56.892;15.090;2022-11-20T13:03:34;1.35;;;1.30;;
17662;SDS011;8950;56.892;15.090;2022-11-20T13:06:05;1.65;;;1.55;;
17662;SDS011;8950;56.892;15.090;2022-11-20T13:08:33;1.63;;;1.52;;
17662;SDS011;8950;56.892;15.090;2022-11-20T13:11:01;1.48;;;1.30;;
17662;SDS011;8950;56.892;15.090;2022-11-20T13:13:31;1.52;;;1.42;;
17662;SDS011;8950;56.892;15.090;2022-11-20T13:16:02;1.67;;;1.38;;
17662;SDS011;8950;56.892;15.090;2022-11-20T13:18:33;1.50;;;1.40;;
17662;SDS011;8950;56.892;15.090;2022-11-20T13:21:02;1.60;;;1.50;;
17662;SDS011;8950;56.892;15.090;2022-11-20T13:23:38;1.60;;;1.50;;
17662;SDS011;8950;56.892;15.090;2022-11-20T13:26:05;1.50;;;1.40;;
17662;SDS011;8950;56.892;15.090;2022-11-20T13:28:32;1.30;;;1.30;;
17662;SDS011;8950;56.892;15.090;2022-11-20T13:30:59;1.60;;;1.50;;
17662;SDS011;8950;56.892;15.090;2022-11-20T13:33:28;1.30;;;1.30;;
17662;SDS011;8950;56.892;15.090;2022-11-20T13:35:55;1.33;;;1.23;;
17662;SDS011;8950;56.892;15.090;2022-11-20T13:38:22;1.25;;;1.25;;
17662;SDS011;8950;56.892;15.090;2022-11-20T13:40:52;1.30;;;1.27;;
17662;SDS011;8950;56.892;15.090;2022-11-20T13:43:21;1.40;;;1.30;;
17662;SDS011;8950;56.892;15.090;2022-11-20T13:45:58;1.30;;;1.30;;
17662;SDS011;8950;56.892;15.090;2022-11-20T13:48:26;1.35;;;1.25;;
17662;SDS011;8950;56.892;15.090;2022-11-20T13:50:59;1.50;;;1.40;;
17662;SDS011;8950;56.892;15.090;2022-11-20T13:53:33;1.30;;;1.20;;
17662;SDS011;8950;56.892;15.090;2022-11-20T13:56:04;1.15;;;1.15;;
17662;SDS011;8950;56.892;15.090;2022-11-20T13:58:36;1.50;;;1.40;;
17662;SDS011;8950;56.892;15.090;2022-11-20T14:01:08;2.08;;;1.42;;
17662;SDS011;8950;56.892;15.090;2022-11-20T14:03:35;1.50;;;1.40;;
17662;SDS011;8950;56.892;15.090;2022-11-20T14:06:04;1.45;;;1.35;;
17662;SDS011;8950;56.892;15.090;2022-11-20T14:08:32;1.40;;;1.30;;
17662;SDS011;8950;56.892;15.090;2022-11-20T14:11:02;1.20;;;1.20;;
17662;SDS011;8950;56.892;15.090;2022-11-20T14:13:28;1.40;;;1.30;;
17662;SDS011;8950;56.892;15.090;2022-11-20T14:15:56;1.50;;;1.40;;
17662;SDS011;8950;56.892;15.090;2022-11-20T14:18:22;1.20;;;1.20;;
17662;SDS011;8950;56.892;15.090;2022-11-20T14:20:49;1.40;;;1.30;;
17662;SDS011;8950;56.892;15.090;2022-11-20T14:23:24;1.23;;;1.23;;
17662;SDS011;8950;56.892;15.090;2022-11-20T14:25:51;1.42;;;1.33;;
17662;SDS011;8950;56.892;15.090;2022-11-20T14:28:19;1.40;;;1.30;;
17662;SDS011;8950;56.892;15.090;2022-11-20T14:30:47;1.38;;;1.35;;
17662;SDS011;8950;56.892;15.090;2022-11-20T14:33:15;1.50;;;1.40;;
17662;SDS011;8950;56.892;15.090;2022-11-20T14:35:43;1.30;;;1.30;;
17662;SDS011;8950;56.892;15.090;2022-11-20T14:38:11;1.10;;;1.10;;
17662;SDS011;8950;56.892;15.090;2022-11-20T14:40:40;1.23;;;1.23;;
17662;SDS011;8950;56.892;15.090;2022-11-20T14:43:15;1.20;;;1.20;;
17662;SDS011;8950;56.892;15.090;2022-11-20T14:45:42;1.17;;;1.17;;
17662;SDS011;8950;56.892;15.090;2022-11-20T14:48:09;1.23;;;1.23;;
17662;SDS011;8950;56.892;15.090;2022-11-20T14:50:37;1.20;;;1.20;;
17662;SDS011;8950;56.892;15.090;2022-11-20T14:53:04;1.40;;;1.30;;
17662;SDS011;8950;56.892;15.090;2022-11-20T14:55:31;1.40;;;1.30;;
17662;SDS011;8950;56.892;15.090;2022-11-20T14:57:59;1.40;;;1.30;;
17662;SDS011;8950;56.892;15.090;2022-11-20T15:00:26;1.30;;;1.20;;
17662;SDS011;8950;56.892;15.090;2022-11-20T15:02:53;1.20;;;1.20;;
17662;SDS011;8950;56.892;15.090;2022-11-20T15:05:20;1.20;;;1.20;;